createdAt,value
2018-06-05T00:00:34.197Z,42.03
2018-06-05T00:03:02.774Z,40.10
2018-06-05T00:05:31.341Z,42.07
2018-06-05T00:07:59.823Z,41.60
2018-06-05T00:10:28.306Z,42.60
2018-06-05T00:12:56.884Z,43.10
2018-06-05T00:15:25.524Z,42.63
2018-06-05T00:17:53.989Z,44.27
2018-06-05T00:20:22.532Z,42.03
2018-06-05T00:22:51.052Z,42.33
2018-06-05T00:25:19.458Z,42.83
2018-06-05T00:27:47.906Z,43.03
2018-06-05T00:30:16.308Z,45.67
2018-06-05T00:32:44.791Z,43.83
2018-06-05T00:35:13.348Z,43.57
2018-06-05T00:37:41.861Z,43.57
2018-06-05T00:40:10.362Z,42.97
2018-06-05T00:42:38.810Z,45.23
2018-06-05T00:45:07.278Z,42.30
2018-06-05T00:47:35.824Z,44.80
2018-06-05T00:50:04.357Z,41.70
2018-06-05T00:52:32.905Z,45.13
2018-06-05T00:55:01.524Z,45.30
2018-06-05T00:57:29.978Z,43.00
2018-06-05T00:59:58.451Z,47.33
2018-06-05T01:02:27.931Z,42.07
2018-06-05T01:04:56.637Z,43.30
2018-06-05T01:07:25.536Z,43.37
2018-06-05T01:09:53.991Z,41.20
2018-06-05T01:12:22.421Z,42.67
2018-06-05T01:14:50.921Z,38.93
2018-06-05T01:17:19.569Z,42.23
2018-06-05T01:19:48.056Z,42.13
2018-06-05T01:22:16.920Z,40.23
2018-06-05T01:24:45.365Z,42.03
2018-06-05T01:27:14.159Z,40.33
2018-06-05T01:29:42.736Z,43.10
2018-06-05T01:32:11.222Z,40.80
2018-06-05T01:34:40.068Z,40.90
2018-06-05T01:37:08.584Z,43.20
2018-06-05T01:39:37.048Z,42.30
2018-06-05T01:42:05.547Z,46.00
2018-06-05T01:44:34.172Z,42.70
2018-06-05T01:47:03.384Z,46.70
2018-06-05T01:49:37.158Z,42.60
2018-06-05T01:52:06.227Z,46.90
2018-06-05T01:54:34.924Z,45.50
2018-06-05T01:57:03.696Z,43.13
2018-06-05T01:59:32.966Z,43.50
2018-06-05T02:02:01.176Z,43.90
2018-06-05T02:04:29.775Z,45.27
2018-06-05T02:06:58.313Z,45.00
2018-06-05T02:09:26.776Z,41.80
2018-06-05T02:11:55.222Z,48.60
2018-06-05T02:14:23.781Z,48.77
2018-06-05T02:16:52.184Z,43.80
2018-06-05T02:19:20.579Z,47.63
2018-06-05T02:21:49.020Z,46.37
2018-06-05T02:24:17.465Z,46.73
2018-06-05T02:26:45.894Z,47.03
2018-06-05T02:29:14.277Z,47.50
2018-06-05T02:31:42.716Z,49.20
2018-06-05T02:34:11.432Z,49.50
2018-06-05T02:36:39.877Z,51.40
2018-06-05T02:39:08.464Z,50.27
2018-06-05T02:41:36.944Z,46.53
2018-06-05T02:44:05.136Z,47.30
2018-06-05T02:46:33.568Z,46.73
2018-06-05T02:49:02.020Z,50.97
2018-06-05T02:51:30.443Z,47.13
2018-06-05T02:53:58.900Z,49.40
2018-06-05T02:56:27.397Z,49.90
2018-06-05T02:58:55.856Z,51.20
2018-06-05T03:01:24.352Z,49.97
2018-06-05T03:03:52.763Z,55.50
2018-06-05T03:06:21.397Z,50.83
2018-06-05T03:08:49.880Z,53.93
2018-06-05T03:11:18.301Z,49.70
2018-06-05T03:13:46.743Z,55.47
2018-06-05T03:16:15.191Z,54.23
2018-06-05T03:18:43.639Z,58.73
2018-06-05T03:21:12.075Z,59.83
2018-06-05T03:23:40.542Z,61.10
2018-06-05T03:26:08.972Z,69.00
2018-06-05T03:28:37.402Z,66.37
2018-06-05T03:31:05.915Z,70.27
2018-06-05T03:33:34.418Z,69.00
2018-06-05T03:36:02.891Z,70.80
2018-06-05T03:38:31.050Z,67.97
2018-06-05T03:40:59.446Z,75.33
2018-06-05T03:43:27.872Z,68.90
2018-06-05T03:45:56.440Z,70.37
2018-06-05T03:48:24.909Z,78.47
2018-06-05T03:50:53.329Z,73.37
2018-06-05T03:53:21.461Z,75.57
2018-06-05T03:55:50.119Z,73.03
2018-06-05T03:58:18.600Z,72.00
2018-06-05T04:00:47.057Z,69.20
2018-06-05T04:03:15.500Z,75.00
2018-06-05T04:05:43.936Z,75.50
2018-06-05T04:08:12.456Z,73.80
2018-06-05T04:10:41.004Z,74.53
2018-06-05T04:13:09.518Z,79.17
2018-06-05T04:15:38.045Z,77.90
2018-06-05T04:18:06.452Z,75.40
2018-06-05T04:20:34.912Z,72.43
2018-06-05T04:23:03.642Z,75.03
2018-06-05T04:25:32.117Z,74.60
2018-06-05T04:28:00.553Z,67.13
2018-06-05T04:30:28.998Z,72.10
2018-06-05T04:32:57.514Z,71.77
2018-06-05T04:35:26.006Z,68.37
2018-06-05T04:37:54.428Z,71.07
2018-06-05T04:40:22.841Z,78.00
2018-06-05T04:42:51.345Z,74.93
2018-06-05T04:45:19.772Z,73.17
2018-06-05T04:47:48.240Z,73.93
2018-06-05T04:50:17.088Z,69.10
2018-06-05T04:52:45.516Z,73.27
2018-06-05T04:55:13.947Z,74.70
2018-06-05T04:57:42.413Z,69.80
2018-06-05T05:00:13.200Z,73.53
2018-06-05T05:02:41.747Z,70.87
2018-06-05T05:05:10.314Z,73.73
2018-06-05T05:07:38.798Z,73.77
2018-06-05T05:10:07.290Z,72.80
2018-06-05T05:12:35.738Z,71.87
2018-06-05T05:15:04.165Z,68.37
2018-06-05T05:17:32.892Z,71.40
2018-06-05T05:20:01.461Z,76.10
2018-06-05T05:22:30.173Z,69.97
2018-06-05T05:24:58.715Z,74.07
2018-06-05T05:27:27.178Z,71.17
2018-06-05T05:29:55.865Z,71.47
2018-06-05T05:32:24.350Z,75.17
2018-06-05T05:34:52.808Z,70.30
2018-06-05T05:37:21.272Z,75.93
2018-06-05T05:39:49.740Z,67.70
2018-06-05T05:42:18.525Z,70.10
2018-06-05T05:44:46.972Z,74.83
2018-06-05T05:47:15.605Z,72.17
2018-06-05T05:49:44.197Z,73.47
2018-06-05T05:52:13.113Z,70.33
2018-06-05T05:54:41.570Z,70.00
2018-06-05T05:57:10.026Z,66.40
2018-06-05T05:59:38.730Z,69.37
2018-06-05T06:02:07.340Z,69.03
2018-06-05T06:04:35.800Z,68.57
2018-06-05T06:07:04.361Z,62.10
2018-06-05T06:09:32.945Z,64.53
2018-06-05T06:12:01.462Z,65.27
2018-06-05T06:14:29.956Z,61.97
2018-06-05T06:16:58.546Z,60.93
2018-06-05T06:19:26.985Z,64.03
2018-06-05T06:21:55.604Z,64.53
2018-06-05T06:24:24.280Z,65.60
2018-06-05T06:26:52.952Z,60.57
2018-06-05T06:29:21.397Z,58.60
2018-06-05T06:31:49.960Z,59.13
2018-06-05T06:34:18.636Z,55.40
2018-06-05T06:36:47.137Z,57.50
2018-06-05T06:39:15.590Z,58.90
2018-06-05T06:41:44.065Z,59.83
2018-06-05T06:44:12.602Z,58.77
2018-06-05T06:46:40.823Z,60.77
2018-06-05T06:49:09.262Z,56.00
2018-06-05T06:51:37.934Z,56.83
2018-06-05T06:54:06.649Z,61.40
2018-06-05T06:56:35.128Z,57.90
2018-06-05T06:59:03.725Z,56.60
2018-06-05T07:01:32.262Z,59.20
2018-06-05T07:04:00.726Z,56.20
2018-06-05T07:06:29.340Z,59.60
2018-06-05T07:08:58.257Z,55.90
2018-06-05T07:11:27.000Z,60.00
2018-06-05T07:13:58.462Z,58.67
2018-06-05T07:16:27.734Z,56.83
2018-06-05T07:18:56.219Z,56.60
2018-06-05T07:21:25.265Z,57.63
2018-06-05T07:23:53.719Z,54.93
2018-06-05T07:26:22.203Z,52.47
2018-06-05T07:28:50.679Z,51.37
2018-06-05T07:31:19.431Z,52.27
2018-06-05T07:33:47.852Z,52.30
2018-06-05T07:36:16.346Z,46.87
2018-06-05T07:38:44.829Z,48.67
2018-06-05T07:41:13.318Z,53.47
2018-06-05T07:43:41.828Z,49.93
2018-06-05T07:46:10.334Z,54.00
2018-06-05T07:48:38.913Z,52.40
2018-06-05T07:51:07.393Z,49.67
2018-06-05T07:53:35.852Z,50.13
2018-06-05T07:56:04.380Z,50.57
2018-06-05T07:58:32.801Z,49.53
2018-06-05T08:01:01.387Z,49.20
2018-06-05T08:03:30.758Z,49.77
2018-06-05T08:05:59.260Z,49.37
2018-06-05T08:08:28.476Z,50.30
2018-06-05T08:10:57.217Z,52.33
2018-06-05T08:13:25.843Z,49.97
2018-06-05T08:15:54.412Z,48.17
2018-06-05T08:18:22.928Z,48.60
2018-06-05T08:20:51.396Z,48.23
2018-06-05T08:23:20.007Z,46.63
2018-06-05T08:25:48.685Z,43.93
2018-06-05T08:28:17.413Z,45.27
2018-06-05T08:30:46.025Z,46.40
2018-06-05T08:33:15.665Z,49.53
2018-06-05T08:35:44.278Z,48.30
2018-06-05T08:38:13.027Z,48.83
2018-06-05T08:40:41.832Z,48.13
2018-06-05T08:43:10.862Z,46.00
2018-06-05T08:45:39.456Z,45.00
2018-06-05T08:48:07.991Z,44.20
2018-06-05T08:50:36.463Z,42.97
2018-06-05T08:53:04.945Z,46.90
2018-06-05T08:55:34.209Z,44.90
2018-06-05T08:58:02.349Z,46.27
2018-06-05T09:00:30.815Z,49.37
2018-06-05T09:02:58.926Z,46.70
2018-06-05T09:05:27.409Z,46.33
2018-06-05T09:07:55.872Z,47.03
2018-06-05T09:10:25.105Z,46.90
2018-06-05T09:12:53.563Z,48.70
2018-06-05T09:15:22.045Z,46.17
2018-06-05T09:17:50.593Z,44.50
2018-06-05T09:20:19.154Z,44.63
2018-06-05T09:22:47.778Z,42.97
2018-06-05T09:25:16.217Z,39.83
2018-06-05T09:27:44.748Z,41.27
2018-06-05T09:30:13.184Z,41.57
2018-06-05T09:32:41.656Z,47.37
2018-06-05T09:35:10.404Z,42.50
2018-06-05T09:37:39.038Z,43.97
2018-06-05T09:40:07.568Z,46.50
2018-06-05T09:42:36.077Z,47.97
2018-06-05T09:45:04.585Z,43.87
2018-06-05T09:47:33.041Z,44.17
2018-06-05T09:50:01.467Z,43.07
2018-06-05T09:52:29.943Z,44.53
2018-06-05T09:54:58.430Z,45.77
2018-06-05T09:57:26.900Z,42.60
2018-06-05T09:59:55.417Z,41.83
2018-06-05T10:02:24.000Z,44.10
2018-06-05T10:04:52.732Z,45.20
2018-06-05T10:07:21.740Z,43.07
2018-06-05T10:09:50.348Z,44.07
2018-06-05T10:12:19.114Z,44.07
2018-06-05T10:14:48.282Z,45.20
2018-06-05T10:17:16.706Z,42.67
2018-06-05T10:19:45.239Z,45.97
2018-06-05T10:22:13.697Z,44.33
2018-06-05T10:27:16.615Z,42.90
2018-06-05T10:29:48.991Z,43.43
2018-06-05T10:32:17.516Z,43.67
2018-06-05T10:34:46.132Z,45.40
2018-06-05T10:37:16.380Z,45.77
2018-06-05T10:39:46.358Z,47.27
2018-06-05T10:42:14.823Z,45.53
2018-06-05T10:44:43.288Z,44.50
2018-06-05T10:47:11.905Z,41.43
2018-06-05T10:49:40.437Z,45.67
2018-06-05T10:52:08.936Z,48.40
2018-06-05T10:54:37.511Z,45.23
2018-06-05T10:57:05.963Z,47.60
2018-06-05T10:59:34.596Z,42.97
2018-06-05T11:02:03.131Z,44.43
2018-06-05T11:04:32.318Z,46.00
2018-06-05T11:07:00.760Z,45.27
2018-06-05T11:09:30.281Z,45.23
2018-06-05T11:11:58.813Z,47.60
2018-06-05T11:14:27.603Z,43.30
2018-06-05T11:16:56.080Z,42.77
2018-06-05T11:19:24.600Z,45.40
2018-06-05T11:21:53.073Z,43.97
2018-06-05T11:24:21.583Z,46.30
2018-06-05T11:26:50.064Z,46.23
2018-06-05T11:29:18.548Z,43.07
2018-06-05T11:31:46.992Z,47.43
2018-06-05T11:34:15.460Z,51.43
2018-06-05T11:36:43.930Z,47.60
2018-06-05T11:39:12.500Z,49.50
2018-06-05T11:41:41.381Z,51.63
2018-06-05T11:44:10.028Z,49.10
2018-06-05T11:46:38.617Z,50.57
2018-06-05T11:49:07.061Z,53.90
2018-06-05T11:51:35.217Z,52.87
2018-06-05T11:54:03.753Z,51.60
2018-06-05T11:56:32.188Z,50.87
2018-06-05T11:59:00.667Z,53.40
2018-06-05T12:01:29.096Z,50.40
2018-06-05T12:03:57.519Z,50.03
2018-06-05T12:06:26.945Z,51.63
2018-06-05T12:08:55.812Z,52.70
2018-06-05T12:11:24.240Z,56.90
2018-06-05T12:13:52.722Z,52.63
2018-06-05T12:16:21.225Z,58.33
2018-06-05T12:18:49.724Z,54.63
2018-06-05T12:21:18.232Z,53.33
2018-06-05T12:23:46.694Z,52.20
2018-06-05T12:26:15.353Z,52.93
2018-06-05T12:28:43.868Z,51.80
2018-06-05T12:31:12.323Z,54.60
2018-06-05T12:33:40.783Z,51.00
2018-06-05T12:36:09.503Z,57.13
2018-06-05T12:38:38.023Z,53.90
2018-06-05T12:41:06.598Z,51.67
2018-06-05T12:43:35.104Z,53.20
2018-06-05T12:46:03.528Z,57.93
2018-06-05T12:48:31.974Z,52.60
2018-06-05T12:51:00.412Z,50.10
2018-06-05T12:53:28.892Z,52.67
2018-06-05T12:55:57.393Z,51.43
2018-06-05T12:58:25.856Z,51.87
2018-06-05T13:00:54.344Z,51.40
2018-06-05T13:03:23.008Z,49.67
2018-06-05T13:05:51.479Z,52.73
2018-06-05T13:08:20.054Z,50.20
2018-06-05T13:10:48.559Z,48.57
2018-06-05T13:13:17.037Z,49.80
2018-06-05T13:15:45.448Z,45.80
2018-06-05T13:18:13.873Z,48.93
2018-06-05T13:20:42.852Z,48.13
2018-06-05T13:23:11.382Z,47.47
2018-06-05T13:25:39.837Z,45.50
2018-06-05T13:28:08.304Z,46.00
2018-06-05T13:30:36.498Z,48.43
2018-06-05T13:33:05.018Z,49.17
2018-06-05T13:35:34.460Z,46.80
2018-06-05T13:38:02.937Z,47.47
2018-06-05T13:40:31.418Z,48.43
2018-06-05T13:42:59.925Z,46.07
2018-06-05T13:45:28.344Z,48.10
2018-06-05T13:47:56.805Z,46.40
2018-06-05T13:50:28.320Z,45.93
2018-06-05T13:52:56.961Z,48.23
2018-06-05T13:55:25.450Z,48.13
2018-06-05T13:57:53.934Z,51.00
2018-06-05T14:00:22.467Z,46.67
2018-06-05T14:02:51.962Z,46.17
2018-06-05T14:05:20.708Z,41.93
2018-06-05T14:07:49.403Z,44.23
2018-06-05T14:10:17.841Z,45.97
2018-06-05T14:12:46.336Z,45.13
2018-06-05T14:15:15.019Z,45.63
2018-06-05T14:17:43.758Z,47.63
2018-06-05T14:20:12.271Z,45.97
2018-06-05T14:22:40.986Z,47.23
2018-06-05T14:25:09.988Z,50.50
2018-06-05T14:27:40.464Z,48.17
2018-06-05T14:30:09.208Z,50.53
2018-06-05T14:32:39.014Z,51.37
2018-06-05T14:35:11.845Z,48.90
2018-06-05T14:37:40.588Z,54.60
2018-06-05T14:40:12.485Z,55.10
2018-06-05T14:42:41.759Z,52.13
2018-06-05T14:45:11.105Z,49.93
2018-06-05T14:47:40.946Z,54.97
2018-06-05T14:50:09.653Z,49.23
2018-06-05T14:52:39.184Z,51.70
2018-06-05T14:55:08.547Z,53.60
2018-06-05T14:57:37.104Z,53.23
2018-06-05T15:00:06.616Z,49.80
2018-06-05T15:02:35.244Z,51.03
2018-06-05T15:05:04.596Z,51.00
2018-06-05T15:07:33.345Z,52.23
2018-06-05T15:10:02.106Z,49.37
2018-06-05T15:12:30.648Z,51.80
2018-06-05T15:14:59.430Z,49.10
2018-06-05T15:17:29.610Z,50.13
2018-06-05T15:19:58.240Z,51.70
2018-06-05T15:22:26.932Z,48.97
2018-06-05T15:24:55.536Z,51.67
2018-06-05T15:27:24.255Z,55.13
2018-06-05T15:29:53.011Z,53.70
2018-06-05T15:32:21.563Z,52.17
2018-06-05T15:34:50.222Z,51.13
2018-06-05T15:37:18.705Z,54.00
2018-06-05T15:39:47.210Z,54.40
2018-06-05T15:42:15.806Z,54.30
2018-06-05T15:44:44.423Z,56.40
2018-06-05T15:47:13.147Z,58.23
2018-06-05T15:49:45.437Z,51.30
2018-06-05T15:52:14.454Z,54.67
2018-06-05T15:54:43.080Z,58.03
2018-06-05T15:57:11.511Z,51.83
2018-06-05T15:59:40.143Z,52.77
2018-06-05T16:02:08.701Z,58.87
2018-06-05T16:04:37.469Z,56.87
2018-06-05T16:07:06.204Z,55.20
2018-06-05T16:09:34.831Z,53.17
2018-06-05T16:12:03.843Z,55.73
2018-06-05T16:14:32.500Z,53.07
2018-06-05T16:17:01.092Z,59.53
2018-06-05T16:19:29.784Z,58.63
2018-06-05T16:21:58.692Z,57.87
2018-06-05T16:24:28.429Z,59.00
2018-06-05T16:26:57.131Z,62.43
2018-06-05T16:29:25.667Z,60.90
2018-06-05T16:31:54.117Z,60.27
2018-06-05T16:34:22.723Z,55.03
2018-06-05T16:36:51.222Z,58.80
2018-06-05T16:39:20.088Z,57.93
2018-06-05T16:41:48.779Z,60.43
2018-06-05T16:44:17.544Z,61.30
2018-06-05T16:46:46.062Z,60.73
2018-06-05T16:49:15.142Z,61.03
2018-06-05T16:51:43.771Z,62.10
2018-06-05T16:54:12.544Z,59.70
2018-06-05T16:56:41.114Z,58.40
2018-06-05T16:59:09.649Z,57.93
2018-06-05T17:01:38.167Z,62.07
2018-06-05T17:04:06.661Z,61.30
2018-06-05T17:06:35.139Z,58.53
2018-06-05T17:09:04.078Z,57.90
2018-06-05T17:11:32.573Z,56.23
2018-06-05T17:14:00.884Z,55.40
2018-06-05T17:16:29.520Z,59.77
2018-06-05T17:18:57.984Z,55.53
2018-06-05T17:21:26.419Z,60.03
2018-06-05T17:23:54.890Z,64.37
2018-06-05T17:26:23.356Z,58.17
2018-06-05T17:28:51.563Z,56.80
2018-06-05T17:31:21.610Z,60.03
2018-06-05T17:33:50.551Z,56.23
2018-06-05T17:36:19.779Z,56.30
2018-06-05T17:38:48.573Z,57.30
2018-06-05T17:41:17.168Z,53.70
2018-06-05T17:43:45.960Z,54.97
2018-06-05T17:46:14.676Z,53.67
2018-06-05T17:48:44.393Z,53.00
2018-06-05T17:51:13.056Z,53.23
2018-06-05T17:53:41.885Z,53.80
2018-06-05T17:56:10.558Z,55.07
2018-06-05T17:58:39.516Z,53.37
2018-06-05T18:01:08.291Z,55.40
2018-06-05T18:03:37.555Z,54.57
2018-06-05T18:06:06.425Z,54.90
2018-06-05T18:08:35.288Z,57.00
2018-06-05T18:11:04.143Z,56.50
2018-06-05T18:13:33.348Z,56.40
2018-06-05T18:16:02.250Z,59.47
2018-06-05T18:18:31.129Z,59.17
2018-06-05T18:21:00.494Z,57.60
2018-06-05T18:23:30.036Z,59.57
2018-06-05T18:25:59.459Z,57.50
2018-06-05T18:28:28.329Z,59.00
2018-06-05T18:30:56.848Z,57.83
2018-06-05T18:33:25.636Z,54.73
2018-06-05T18:35:54.826Z,53.93
2018-06-05T18:38:23.782Z,49.80
2018-06-05T18:40:52.973Z,48.17
2018-06-05T18:43:21.571Z,48.63
2018-06-05T18:45:50.179Z,47.00
2018-06-05T18:48:18.831Z,43.17
2018-06-05T18:50:47.313Z,42.30
2018-06-05T18:53:16.148Z,40.00
2018-06-05T18:55:44.610Z,40.80
2018-06-05T18:58:13.229Z,41.37
2018-06-05T19:00:42.070Z,43.10
2018-06-05T19:03:10.700Z,41.57
2018-06-05T19:05:39.120Z,38.27
2018-06-05T19:08:08.354Z,40.10
2018-06-05T19:10:37.231Z,41.37
2018-06-05T19:13:06.996Z,40.70
2018-06-05T19:15:35.688Z,41.27
2018-06-05T19:18:04.228Z,40.13
2018-06-05T19:20:33.615Z,41.43
2018-06-05T19:23:02.058Z,44.30
2018-06-05T19:25:31.152Z,40.33
2018-06-05T19:27:59.868Z,42.23
2018-06-05T19:30:28.559Z,43.67
2018-06-05T19:32:57.109Z,38.23
2018-06-05T19:35:25.636Z,40.77
2018-06-05T19:37:54.491Z,40.43
2018-06-05T19:40:24.213Z,40.93
2018-06-05T19:42:52.699Z,38.40
2018-06-05T19:45:21.203Z,39.73
2018-06-05T19:47:50.165Z,41.13
2018-06-05T19:50:18.682Z,37.70
2018-06-05T19:52:47.804Z,36.83
2018-06-05T19:55:16.222Z,41.23
2018-06-05T19:57:44.708Z,39.20
2018-06-05T20:00:13.172Z,40.30
2018-06-05T20:02:41.800Z,39.50
2018-06-05T20:05:10.455Z,41.43
2018-06-05T20:07:38.997Z,39.23
2018-06-05T20:10:07.903Z,39.80
2018-06-05T20:12:36.704Z,38.00
2018-06-05T20:15:05.457Z,38.37
2018-06-05T20:17:34.880Z,38.33
2018-06-05T20:20:03.645Z,38.30
2018-06-05T20:22:32.691Z,37.30
2018-06-05T20:25:01.420Z,36.47
2018-06-05T20:27:32.805Z,41.03
2018-06-05T20:30:02.322Z,38.87
2018-06-05T20:32:30.917Z,38.07
2018-06-05T20:35:01.594Z,40.83
2018-06-05T20:37:30.241Z,37.80
2018-06-05T20:39:59.147Z,38.10
2018-06-05T20:42:27.937Z,37.50
2018-06-05T20:44:56.460Z,36.83
2018-06-05T20:47:24.800Z,40.60
2018-06-05T20:49:53.434Z,39.03
2018-06-05T20:52:22.047Z,41.60
2018-06-05T20:54:50.652Z,36.83
2018-06-05T20:57:20.589Z,38.77
2018-06-05T20:59:49.516Z,39.60
2018-06-05T21:02:18.353Z,42.20
2018-06-05T21:04:47.947Z,39.07
2018-06-05T21:07:17.487Z,40.50
2018-06-05T21:09:46.098Z,41.23
2018-06-05T21:12:14.651Z,37.83
2018-06-05T21:14:43.965Z,41.27
2018-06-05T21:17:12.918Z,40.27
2018-06-05T21:19:44.000Z,44.90
2018-06-05T21:22:13.997Z,40.50
2018-06-05T21:24:44.088Z,45.27
2018-06-05T21:27:12.617Z,42.20
2018-06-05T21:29:41.110Z,42.03
2018-06-05T21:32:11.825Z,41.37
2018-06-05T21:34:40.484Z,43.90
2018-06-05T21:37:09.175Z,40.57
2018-06-05T21:39:37.854Z,40.37
2018-06-05T21:42:06.482Z,39.73
2018-06-05T21:44:34.949Z,39.93
2018-06-05T21:47:03.636Z,43.63
2018-06-05T21:49:32.590Z,43.00
2018-06-05T21:52:01.556Z,40.90
2018-06-05T21:54:30.950Z,43.40
2018-06-05T21:57:00.256Z,43.07
2018-06-05T21:59:32.097Z,41.17
2018-06-05T22:02:00.557Z,43.17
2018-06-05T22:04:31.255Z,41.60
2018-06-05T22:06:59.856Z,41.47
2018-06-05T22:09:29.373Z,44.40
2018-06-05T22:12:00.323Z,42.20
2018-06-05T22:14:29.314Z,42.43
2018-06-05T22:16:59.482Z,42.87
2018-06-05T22:19:27.926Z,44.60
2018-06-05T22:21:56.392Z,45.57
2018-06-05T22:24:24.852Z,44.00
2018-06-05T22:26:54.532Z,48.00
2018-06-05T22:29:23.273Z,46.07
2018-06-05T22:31:52.118Z,46.07
2018-06-05T22:34:20.552Z,48.23
2018-06-05T22:36:49.185Z,47.53
2018-06-05T22:39:18.150Z,49.97
2018-06-05T22:41:46.630Z,42.40
2018-06-05T22:44:15.554Z,47.20
2018-06-05T22:46:44.180Z,46.30
2018-06-05T22:49:12.774Z,47.77
2018-06-05T22:51:41.397Z,48.70
2018-06-05T22:54:10.101Z,46.43
2018-06-05T22:56:38.976Z,47.80
2018-06-05T22:59:07.452Z,46.00
2018-06-05T23:01:36.052Z,45.27
2018-06-05T23:04:04.799Z,44.77
2018-06-05T23:06:33.258Z,47.90
2018-06-05T23:09:01.999Z,44.40
2018-06-05T23:11:30.456Z,47.17
2018-06-05T23:13:59.036Z,46.37
2018-06-05T23:16:27.682Z,44.17
2018-06-05T23:18:56.360Z,49.50
2018-06-05T23:21:25.006Z,47.57
2018-06-05T23:23:53.800Z,46.07
2018-06-05T23:26:22.396Z,48.70
2018-06-05T23:28:50.986Z,47.17
2018-06-05T23:31:19.492Z,49.20
2018-06-05T23:33:47.644Z,44.03
2018-06-05T23:36:16.289Z,46.97
2018-06-05T23:38:44.764Z,49.97
2018-06-05T23:41:13.321Z,51.20
2018-06-05T23:43:41.954Z,50.03
2018-06-05T23:46:10.581Z,48.47
2018-06-05T23:48:39.036Z,51.37
2018-06-05T23:51:07.444Z,48.33
2018-06-05T23:53:35.855Z,49.50
2018-06-05T23:56:04.313Z,52.60
2018-06-05T23:58:32.927Z,50.73
